Time;durP1;ratioP1;P1;durP2;ratioP2;P2;SDS_P1;SDS_P2;PMS_P1;PMS_P2;Temp;Humidity;BMP_temperature;BMP_pressure;BME280_temperature;BME280_humidity;BME280_pressure;Samples;Min_cycle;Max_cycle;Signal;HPM_P1;HPM_P2
2022/02/08 00:01:15;;;;;;;4.67;2.13;;;3.20;99.90;;;4.00;100.00;99449.66;4995167;28;21213;-77
2022/02/08 00:03:47;;;;;;;10.93;2.07;;;3.30;99.90;;;4.03;100.00;99453.78;4999836;28;20469;-77
2022/02/08 00:06:35;;;;;;;6.23;1.70;;;3.30;99.90;;;4.02;100.00;99462.50;4995123;28;21024;-77
2022/02/08 00:09:04;;;;;;;6.00;3.33;;;3.20;99.90;;;3.98;100.00;99455.91;4995272;28;20581;-77
2022/02/08 00:11:33;;;;;;;4.80;1.60;;;3.20;99.90;;;3.98;100.00;99461.06;4997945;28;20465;-77
2022/02/08 00:14:04;;;;;;;9.00;1.90;;;3.20;99.90;;;4.00;100.00;99454.00;4996602;28;20504;-77
2022/02/08 00:16:33;;;;;;;7.63;1.90;;;3.20;99.90;;;3.99;100.00;99457.56;4997185;28;20470;-77
2022/02/08 00:19:04;;;;;;;13.07;2.17;;;3.20;99.90;;;4.00;100.00;99456.59;4995770;28;20490;-77
2022/02/08 00:21:33;;;;;;;12.33;2.63;;;3.30;99.90;;;4.03;100.00;99453.78;4996166;28;20472;-77
2022/02/08 00:24:02;;;;;;;4.70;2.00;;;3.40;99.90;;;4.02;100.00;99455.56;4996387;28;20501;-77
2022/02/08 00:26:32;;;;;;;11.00;1.63;;;3.30;99.90;;;4.03;100.00;99448.59;4998554;28;20477;-77
2022/02/08 00:29:03;;;;;;;3.93;1.70;;;3.50;99.90;;;4.04;100.00;99450.28;4996643;28;20466;-77
2022/02/08 00:31:33;;;;;;;4.20;1.60;;;3.40;99.90;;;4.04;100.00;99456.28;4998308;28;20463;-77
2022/02/08 00:34:04;;;;;;;12.90;2.50;;;3.30;99.90;;;4.05;100.00;99459.69;4996787;28;20986;-77
2022/02/08 00:36:33;;;;;;;4.07;1.80;;;3.30;99.90;;;4.10;100.00;99454.16;4995084;28;20574;-76
2022/02/08 00:39:04;;;;;;;11.83;2.70;;;3.40;99.90;;;4.03;100.00;99453.78;4994716;28;20983;-77
2022/02/08 00:41:34;;;;;;;4.97;1.90;;;3.30;99.90;;;4.00;100.00;99451.44;4995133;28;20478;-77
2022/02/08 00:44:09;;;;;;;13.43;1.90;;;3.30;99.90;;;4.03;100.00;99441.69;4994060;28;20465;-77
2022/02/08 00:46:44;;;;;;;12.90;3.00;;;3.20;99.90;;;4.00;100.00;99443.66;4993813;28;20493;-77
2022/02/08 00:49:15;;;;;;;4.50;1.53;;;3.20;99.90;;;4.00;100.00;99436.72;4995781;28;20914;-77
2022/02/08 00:51:50;;;;;;;7.43;2.23;;;3.30;99.90;;;4.03;100.00;99444.25;4999285;28;20507;-76
2022/02/08 00:54:20;;;;;;;8.70;2.57;;;3.30;99.90;;;4.05;100.00;99452.75;4996596;28;20461;-76
2022/02/08 00:56:50;;;;;;;5.57;2.10;;;3.30;99.90;;;4.05;100.00;99451.94;4995205;28;20469;-77
2022/02/08 00:59:18;;;;;;;9.43;2.00;;;3.40;99.90;;;4.05;100.00;99445.00;4995177;28;20517;-77
2022/02/08 01:01:48;;;;;;;4.00;1.63;;;3.40;99.90;;;4.08;100.00;99449.13;4996313;28;20883;-77
2022/02/08 01:04:19;;;;;;;6.37;1.93;;;3.40;99.90;;;4.12;100.00;99447.97;4996226;28;20476;-77
2022/02/08 01:06:51;;;;;;;8.57;3.50;;;3.50;99.90;;;4.14;100.00;99450.41;4995393;28;20470;-77
2022/02/08 01:09:29;;;;;;;6.13;2.00;;;3.60;99.90;;;4.12;100.00;99441.97;4993855;28;20562;-77
2022/02/08 01:11:59;;;;;;;2.80;1.70;;;3.60;99.90;;;4.13;100.00;99443.63;4996518;28;20785;-76
2022/02/08 01:14:32;;;;;;;8.50;2.20;;;3.60;99.90;;;4.10;100.00;99443.81;4997342;28;20462;-77
2022/02/08 01:17:01;;;;;;;7.13;2.30;;;3.50;99.90;;;4.14;100.00;99455.59;4992943;28;20480;-76
2022/02/08 01:19:35;;;;;;;8.30;2.40;;;3.50;99.90;;;4.18;100.00;99446.69;4996399;28;20994;-76
2022/02/08 01:22:05;;;;;;;7.00;2.20;;;3.60;99.90;;;4.22;100.00;99448.09;4995204;28;20492;-77
2022/02/08 01:24:36;;;;;;;6.17;2.00;;;3.70;99.90;;;4.24;100.00;99441.88;4997187;28;20496;-76
2022/02/08 01:27:10;;;;;;;7.37;2.07;;;3.60;99.90;;;4.21;100.00;99443.88;4994865;28;20470;-77
2022/02/08 01:29:53;;;;;;;5.53;2.10;;;3.60;99.90;;;4.20;100.00;99443.03;4994989;28;20780;-77
2022/02/08 01:32:47;;;;;;;9.63;2.67;;;3.70;99.90;;;4.16;100.00;99454.56;4995149;28;20607;-77
2022/02/08 01:35:31;;;;;;;4.13;1.90;;;3.60;99.90;;;4.17;100.00;99450.19;4995145;28;20502;-77
2022/02/08 01:38:06;;;;;;;9.47;1.83;;;3.50;99.90;;;4.18;100.00;99457.88;4994212;28;20864;-77
2022/02/08 01:40:52;;;;;;;14.03;2.10;;;3.40;99.90;;;4.18;100.00;99454.44;4995996;28;20550;-76
2022/02/08 01:46:24;;;;;;;8.60;2.17;;;3.40;99.90;;;4.17;100.00;99450.19;4990746;28;20575;-77
2022/02/08 01:48:59;;;;;;;3.97;1.63;;;3.40;99.90;;;4.17;100.00;99445.84;4997926;28;20510;-76
2022/02/08 01:51:31;;;;;;;5.17;2.10;;;3.40;99.90;;;4.17;100.00;99437.25;4995808;28;20480;-76
2022/02/08 01:54:02;;;;;;;5.93;1.70;;;3.50;99.90;;;4.14;100.00;99434.88;4995749;28;20560;-77
2022/02/08 01:56:31;;;;;;;4.00;1.70;;;3.40;99.90;;;4.13;100.00;99434.06;4997744;28;20593;-77
2022/02/08 01:59:00;;;;;;;5.47;2.10;;;3.40;99.90;;;4.13;100.00;99434.06;4995010;28;20470;-77
2022/02/08 02:01:29;;;;;;;7.57;2.47;;;3.40;99.90;;;4.09;100.00;99432.66;4997340;28;20464;-77
2022/02/08 02:03:59;;;;;;;13.80;2.60;;;3.40;99.90;;;4.15;100.00;99428.78;4995990;28;20483;-77
2022/02/08 02:06:42;;;;;;;3.77;1.77;;;3.50;99.90;;;4.14;100.00;99432.31;4996325;28;20914;-77
2022/02/08 02:09:11;;;;;;;9.33;2.77;;;3.60;99.90;;;4.13;100.00;99423.72;4996115;28;20470;-77
2022/02/08 02:11:41;;;;;;;6.80;1.70;;;3.60;99.90;;;4.14;100.00;99425.38;4996063;28;20462;-77
2022/02/08 02:14:11;;;;;;;10.27;2.60;;;3.50;99.90;;;4.15;100.00;99421.03;4995121;28;20494;-76
2022/02/08 02:16:52;;;;;;;7.87;2.70;;;3.60;99.90;;;4.13;100.00;99418.53;4995262;28;21195;-77
2022/02/08 02:19:26;;;;;;;12.93;2.40;;;3.50;99.90;;;4.15;100.00;99419.25;4993707;28;20982;-77
2022/02/08 02:22:00;;;;;;;9.27;2.30;;;3.60;99.90;;;4.18;100.00;99408.69;4992245;28;20955;-77
2022/02/08 02:24:31;;;;;;;8.80;2.37;;;3.70;99.90;;;4.16;100.00;99412.34;4990344;28;21003;-77
2022/02/08 02:27:03;;;;;;;9.40;2.00;;;3.70;99.90;;;4.16;100.00;99400.22;4993518;28;20482;-76
2022/02/08 02:29:34;;;;;;;6.07;1.97;;;3.70;99.90;;;4.16;100.00;99394.22;4991582;28;20477;-77
2022/02/08 02:32:05;;;;;;;5.33;2.00;;;3.70;99.90;;;4.17;100.00;99394.06;4990305;28;21080;-77
2022/02/08 02:34:35;;;;;;;20.03;2.83;;;3.70;99.90;;;4.20;100.00;99398.22;4994450;28;20477;-77
2022/02/08 02:37:06;;;;;;;9.43;2.10;;;3.60;99.90;;;4.20;100.00;99393.84;4995530;28;21054;-77
2022/02/08 02:39:39;;;;;;;7.80;1.93;;;3.70;99.90;;;4.23;100.00;99400.59;4992501;28;20465;-77
2022/02/08 02:42:12;;;;;;;9.47;2.30;;;3.60;99.90;;;4.26;100.00;99398.59;4991610;28;20492;-77
2022/02/08 02:44:43;;;;;;;22.20;2.93;;;3.60;99.90;;;4.28;100.00;99395.88;4991795;28;20504;-77
2022/02/08 02:47:13;;;;;;;13.03;2.70;;;3.60;99.90;;;4.31;100.00;99396.47;4992243;28;21018;-77
2022/02/08 02:49:43;;;;;;;8.63;1.90;;;3.70;99.90;;;4.33;100.00;99397.19;4991471;28;20891;-76
2022/02/08 02:52:13;;;;;;;7.33;2.10;;;3.70;99.90;;;4.39;100.00;99399.31;4994541;28;20476;-77
2022/02/08 02:54:44;;;;;;;8.37;2.33;;;3.80;99.90;;;4.39;100.00;99390.72;4993144;28;20799;-77
2022/02/08 02:57:16;;;;;;;6.13;2.10;;;3.90;99.90;;;4.41;100.00;99387.06;4993368;28;20481;-77
2022/02/08 02:59:48;;;;;;;4.57;2.13;;;3.80;99.90;;;4.42;100.00;99395.66;4994776;28;20470;-77
2022/02/08 03:02:37;;;;;;;10.30;2.07;;;3.80;99.90;;;4.44;100.00;99397.19;4992277;28;20471;-77
2022/02/08 03:05:29;;;;;;;5.20;1.70;;;3.80;99.90;;;4.46;100.00;99399.69;4990817;28;20466;-77
2022/02/08 03:19:11;;;;;;;10.80;2.23;;;3.90;99.90;;;4.55;100.00;99399.81;4995506;28;20507;-77
2022/02/08 03:21:41;;;;;;;6.80;2.00;;;3.90;99.90;;;4.51;100.00;99398.38;4993545;28;20976;-77
2022/02/08 03:24:10;;;;;;;10.47;1.90;;;3.90;99.90;;;4.51;100.00;99400.97;4991296;28;20495;-77
2022/02/08 03:26:42;;;;;;;16.50;2.07;;;3.90;99.90;;;4.53;100.00;99406.06;4992458;28;20949;-77
2022/02/08 03:29:11;;;;;;;10.17;2.63;;;3.80;99.90;;;4.52;100.00;99407.81;4994204;28;20465;-77
2022/02/08 03:31:41;;;;;;;5.33;2.23;;;3.80;99.90;;;4.58;100.00;99409.94;4991002;28;20532;-77
2022/02/08 03:34:11;;;;;;;13.73;2.37;;;4.00;99.90;;;4.63;100.00;99406.19;4991857;28;20970;-77
2022/02/08 03:36:40;;;;;;;4.10;1.73;;;4.10;99.90;;;4.64;100.00;99398.31;4992635;28;20498;-77
2022/02/08 03:39:15;;;;;;;6.83;2.00;;;4.10;99.90;;;4.64;100.00;99400.91;4991919;28;20494;-77
2022/02/08 03:41:51;;;;;;;6.67;1.93;;;4.00;99.90;;;4.64;100.00;99405.25;4991901;28;20475;-77
2022/02/08 03:44:31;;;;;;;7.60;2.00;;;4.00;99.90;;;4.67;100.00;99411.03;4990124;28;20490;-77
2022/02/08 03:47:05;;;;;;;10.50;1.93;;;4.10;99.90;;;4.70;100.00;99417.72;4991484;28;20577;-77
2022/02/08 03:49:35;;;;;;;10.07;2.90;;;4.10;99.90;;;4.72;100.00;99421.06;4991508;28;20980;-77
2022/02/08 03:52:07;;;;;;;6.27;2.70;;;4.10;99.90;;;4.70;100.00;99421.16;4992015;28;20489;-78
2022/02/08 03:54:37;;;;;;;5.50;2.50;;;4.20;99.90;;;4.71;100.00;99421.97;4990474;28;20581;-78
2022/02/08 03:57:10;;;;;;;8.83;2.23;;;4.20;99.90;;;4.73;100.00;99423.50;4990328;28;20494;-78
2022/02/08 03:59:40;;;;;;;11.53;2.20;;;4.10;99.90;;;4.73;100.00;99422.69;4991631;28;20470;-78
2022/02/08 04:02:27;;;;;;;4.17;1.93;;;4.10;99.90;;;4.73;100.00;99418.31;4992452;28;20521;-78
2022/02/08 04:05:02;;;;;;;21.13;2.83;;;4.10;99.90;;;4.77;100.00;99426.69;4990861;28;21057;-78
2022/02/08 04:07:37;;;;;;;8.17;2.00;;;4.20;99.90;;;4.77;100.00;99426.69;4989205;28;20495;-78
2022/02/08 04:10:09;;;;;;;10.07;2.60;;;4.10;99.90;;;4.78;100.00;99421.41;4992466;28;20473;-77
2022/02/08 04:12:50;;;;;;;5.20;2.10;;;4.20;99.90;;;4.78;100.00;99412.81;4990968;28;20467;-78
2022/02/08 04:15:34;;;;;;;9.80;2.40;;;4.10;99.90;;;4.78;100.00;99415.41;4992587;28;20768;-78
2022/02/08 04:18:35;;;;;;;8.23;2.17;;;4.10;99.90;;;4.79;100.00;99417.06;4992772;28;20501;-78
2022/02/08 04:32:25;;;;;;;5.63;3.30;;;4.20;99.90;;;4.83;100.00;99415.84;4996949;28;20483;-78
2022/02/08 04:35:21;;;;;;;6.80;3.00;;;4.20;99.90;;;4.81;100.00;99413.41;4995652;28;21122;-78
2022/02/08 04:38:07;;;;;;;9.20;1.90;;;4.20;99.90;;;4.80;100.00;99418.69;4995127;28;20467;-78
2022/02/08 04:40:50;;;;;;;4.50;2.50;;;4.20;99.90;;;4.83;100.00;99413.25;4995062;28;21076;-78
2022/02/08 04:43:31;;;;;;;16.37;2.53;;;4.10;99.90;;;4.84;100.00;99413.16;4992411;28;20474;-78
2022/02/08 04:46:09;;;;;;;11.90;4.00;;;4.10;99.90;;;4.85;100.00;99417.41;4991622;28;20652;-79
2022/02/08 04:48:53;;;;;;;14.90;3.60;;;4.20;99.90;;;4.91;100.00;99416.09;4993951;28;20465;-77
2022/02/08 04:51:29;;;;;;;5.93;2.20;;;4.30;99.90;;;4.88;100.00;99416.34;4995585;28;20469;-77
2022/02/08 04:54:10;;;;;;;5.07;2.50;;;4.30;99.90;;;4.86;100.00;99418.25;4997157;28;20848;-77
2022/02/08 04:56:57;;;;;;;6.53;2.00;;;4.20;99.90;;;4.90;100.00;99419.63;4996621;28;20474;-75
2022/02/08 04:59:40;;;;;;;11.57;2.00;;;4.30;99.90;;;4.92;100.00;99410.00;4992301;28;20974;-78
2022/02/08 05:02:27;;;;;;;9.00;3.10;;;4.30;99.90;;;4.92;100.00;99415.16;4994072;28;20485;-76
2022/02/08 05:27:57;;;;;;;9.20;3.03;;;4.50;99.90;;;5.01;100.00;99417.88;4997202;28;20509;-76
2022/02/08 05:36:00;;;;;;;15.68;3.50;;;4.40;99.90;;;5.06;100.00;99409.75;4998046;28;20436;-75
2022/02/08 05:41:42;;;;;;;8.30;2.90;;;4.40;99.90;;;5.11;100.00;99404.19;5000034;28;20503;-75
2022/02/08 05:44:28;;;;;;;10.90;2.67;;;4.50;99.90;;;5.10;100.00;99405.16;4999023;28;21007;-76
2022/02/08 05:46:58;;;;;;;7.57;2.20;;;4.50;99.90;;;5.09;100.00;99404.31;4999938;28;20518;-76
2022/02/08 05:49:40;;;;;;;14.20;2.40;;;4.50;99.90;;;5.10;100.00;99400.81;4999768;28;20466;-75
2022/02/08 05:54:59;;;;;;;15.80;3.80;;;4.60;99.90;;;5.08;100.00;99420.81;5000891;28;20469;-75
2022/02/08 05:57:29;;;;;;;9.60;2.40;;;4.50;99.90;;;5.08;100.00;99418.22;5001060;28;20726;-75
2022/02/08 06:00:02;;;;;;;10.83;2.60;;;4.60;99.90;;;5.04;100.00;99422.81;5001325;28;20831;-75
2022/02/08 06:02:32;;;;;;;12.03;2.80;;;4.50;99.90;;;5.03;100.00;99422.94;5001912;28;20464;-75
2022/02/08 06:05:09;;;;;;;12.03;2.60;;;4.50;99.90;;;4.97;100.00;99415.63;4998399;28;20530;-75
2022/02/08 06:07:42;;;;;;;9.77;2.70;;;4.40;99.90;;;4.97;100.00;99421.63;4999755;28;20501;-76
2022/02/08 06:10:11;;;;;;;9.17;2.60;;;4.50;99.90;;;4.95;100.00;99422.72;5000629;28;20486;-75
2022/02/08 06:12:56;;;;;;;9.90;2.60;;;4.30;99.90;;;4.97;100.00;99420.81;5000530;28;20498;-75
2022/02/08 06:15:27;;;;;;;14.30;2.87;;;4.40;99.90;;;4.92;100.00;99415.16;4999811;28;20466;-75
2022/02/08 06:17:59;;;;;;;21.13;3.50;;;4.40;99.90;;;4.89;100.00;99412.81;4999644;28;20450;-75
2022/02/08 06:20:31;;;;;;;18.03;2.37;;;4.30;99.90;;;4.93;100.00;99403.84;5000882;28;20474;-75
2022/02/08 06:23:08;;;;;;;11.10;2.40;;;4.30;99.90;;;4.84;100.00;99400.19;5000487;28;20926;-75
2022/02/08 06:25:40;;;;;;;7.70;2.23;;;4.20;99.90;;;4.80;100.00;99400.53;5000179;28;20513;-75
2022/02/08 06:28:12;;;;;;;11.57;3.27;;;4.20;99.90;;;4.87;100.00;99393.94;4999524;28;20575;-75
2022/02/08 06:30:47;;;;;;;13.60;3.60;;;4.30;99.90;;;4.78;100.00;99400.69;5000379;28;20455;-75
2022/02/08 06:33:25;;;;;;;6.10;2.90;;;4.20;99.90;;;4.80;100.00;99419.50;4999385;28;20473;-75
2022/02/08 06:35:56;;;;;;;7.53;2.33;;;4.20;99.90;;;4.80;100.00;99421.28;5002960;28;20467;-75
2022/02/08 06:38:28;;;;;;;13.40;2.90;;;4.30;99.90;;;4.77;100.00;99418.91;5002398;28;20511;-75
2022/02/08 06:41:02;;;;;;;10.37;2.87;;;4.20;99.90;;;4.74;100.00;99419.16;5001343;28;20465;-75
2022/02/08 06:43:34;;;;;;;7.40;2.50;;;4.20;99.90;;;4.77;100.00;99424.09;5003386;28;20537;-75
2022/02/08 06:46:05;;;;;;;12.07;2.77;;;4.20;99.90;;;4.76;100.00;99443.16;5001797;28;20534;-75
2022/02/08 06:48:36;;;;;;;9.00;3.10;;;4.20;99.90;;;4.78;100.00;99431.78;5000525;28;20458;-76
2022/02/08 06:51:08;;;;;;;10.77;2.57;;;4.30;99.90;;;4.80;100.00;99436.81;5001423;28;20454;-75
2022/02/08 06:53:42;;;;;;;8.37;3.30;;;4.30;99.90;;;4.82;100.00;99440.13;5001588;28;20984;-75
2022/02/08 06:56:14;;;;;;;11.23;2.70;;;4.40;99.90;;;4.76;100.00;99448.34;5001640;28;20446;-75
2022/02/08 06:58:50;;;;;;;6.80;2.40;;;4.20;99.90;;;4.73;100.00;99436.47;4999782;28;20466;-75
2022/02/08 07:01:27;;;;;;;9.73;2.80;;;4.10;99.90;;;4.73;100.00;99438.22;5000681;28;20458;-76
2022/02/08 07:03:59;;;;;;;18.67;3.23;;;4.20;99.90;;;4.76;100.00;99445.75;5001960;28;20811;-75
2022/02/08 07:06:30;;;;;;;10.60;3.00;;;4.30;99.90;;;4.78;100.00;99451.66;5002354;28;20498;-76
2022/02/08 07:09:03;;;;;;;15.27;2.50;;;4.30;99.90;;;4.79;100.00;99448.16;4999902;28;20956;-75
2022/02/08 07:11:33;;;;;;;9.53;2.23;;;4.30;99.90;;;4.70;100.00;99444.47;5000602;28;20940;-75
2022/02/08 07:14:06;;;;;;;9.63;2.77;;;4.10;99.90;;;4.72;100.00;99446.97;5000179;28;20450;-75
2022/02/08 07:16:37;;;;;;;7.87;2.73;;;4.20;99.90;;;4.70;100.00;99448.81;5000267;28;20527;-75
2022/02/08 07:19:10;;;;;;;16.50;4.30;;;4.20;99.90;;;4.73;100.00;99453.75;5000789;28;20468;-75
2022/02/08 07:21:41;;;;;;;9.77;2.97;;;4.30;99.90;;;4.77;100.00;99457.78;5001176;28;20451;-75
2022/02/08 07:24:16;;;;;;;7.40;2.50;;;4.20;99.90;;;4.75;100.00;99451.91;5000279;28;20486;-75
2022/02/08 07:26:47;;;;;;;9.83;2.83;;;4.20;99.90;;;4.81;100.00;99454.03;5001300;28;20496;-75
2022/02/08 07:29:20;;;;;;;11.70;2.00;;;4.30;99.90;;;4.75;100.00;99462.25;5002795;28;20443;-76
2022/02/08 07:31:55;;;;;;;10.33;2.60;;;4.20;99.90;;;4.76;100.00;99471.66;4999343;28;20450;-75
2022/02/08 07:34:33;;;;;;;6.07;1.97;;;4.20;99.90;;;4.81;100.00;99477.34;5000605;28;20451;-75
2022/02/08 07:37:11;;;;;;;7.13;2.43;;;4.20;99.90;;;4.82;100.00;99484.19;5003285;28;20457;-75
2022/02/08 07:39:47;;;;;;;5.87;2.80;;;4.20;99.90;;;4.84;100.00;99485.72;5003599;28;20450;-75
2022/02/08 07:42:17;;;;;;;4.63;2.50;;;4.30;99.90;;;4.82;100.00;99479.84;5001095;28;20469;-75
2022/02/08 07:44:52;;;;;;;3.53;2.43;;;4.20;99.90;;;4.81;100.00;99498.06;4999948;28;20989;-75
2022/02/08 07:47:22;;;;;;;6.73;2.43;;;4.20;99.90;;;4.84;100.00;99490.06;4999622;28;20525;-75
2022/02/08 07:49:52;;;;;;;15.17;2.30;;;4.30;99.90;;;4.87;100.00;99493.25;4999477;28;20513;-75
2022/02/08 07:52:23;;;;;;;8.60;2.00;;;4.30;99.90;;;4.87;100.00;99489.84;4999253;28;20955;-75
2022/02/08 07:54:55;;;;;;;5.10;2.73;;;4.20;99.90;;;4.89;100.00;99490.56;5003912;28;20459;-75
2022/02/08 07:57:26;;;;;;;6.03;1.80;;;4.30;99.90;;;4.91;100.00;99493.84;5002222;28;20469;-75
2022/02/08 07:59:59;;;;;;;5.90;2.47;;;4.30;99.90;;;4.94;100.00;99503.97;5002856;28;20442;-75
2022/02/08 08:02:31;;;;;;;6.90;3.30;;;4.40;99.90;;;5.00;100.00;99495.72;5003738;28;20560;-75
2022/02/08 08:05:04;;;;;;;5.80;2.20;;;4.50;99.90;;;4.98;100.00;99505.41;5002700;28;20450;-75
2022/02/08 08:07:36;;;;;;;4.80;2.30;;;4.50;99.90;;;4.98;100.00;99500.22;5001524;28;20530;-75
2022/02/08 08:10:17;;;;;;;5.73;2.47;;;4.40;99.90;;;5.00;100.00;99498.31;5003222;28;20474;-75
2022/02/08 08:12:53;;;;;;;4.03;2.23;;;4.40;99.90;;;4.95;100.00;99497.88;5000117;28;20497;-75
2022/02/08 08:15:35;;;;;;;15.10;2.57;;;4.30;99.90;;;4.96;100.00;99499.53;5000648;28;20485;-75
2022/02/08 08:18:24;;;;;;;8.20;2.40;;;4.40;99.90;;;4.96;100.00;99497.72;5003408;28;20447;-75
2022/02/08 08:20:54;;;;;;;3.80;1.60;;;4.40;99.90;;;4.96;100.00;99502.91;5004136;28;20554;-75
2022/02/08 08:23:27;;;;;;;5.00;1.90;;;4.40;99.90;;;5.01;100.00;99502.56;5001942;28;20466;-75
2022/02/08 08:26:00;;;;;;;6.50;2.10;;;4.30;99.90;;;5.05;100.00;99493.63;5002653;28;20904;-75
2022/02/08 08:28:33;;;;;;;5.80;1.83;;;4.40;99.90;;;5.05;100.00;99491.88;5001846;28;20462;-75
2022/02/08 08:31:05;;;;;;;2.83;2.07;;;4.40;99.90;;;5.04;100.00;99495.41;5002325;28;20458;-75
2022/02/08 08:34:00;;;;;;;6.83;2.40;;;4.40;99.90;;;5.11;100.00;99494.91;5004409;28;20458;-75
2022/02/08 08:36:39;;;;;;;4.27;2.10;;;4.50;99.90;;;5.11;100.00;99498.34;5004007;28;20447;-75
2022/02/08 08:39:10;;;;;;;10.30;1.87;;;4.50;99.90;;;5.14;100.00;99495.50;5001584;28;20454;-75
2022/02/08 08:41:48;;;;;;;2.80;2.00;;;4.60;99.90;;;5.12;100.00;99500.00;5003831;28;20469;-75
2022/02/08 08:44:51;;;;;;;9.00;1.93;;;4.60;99.90;;;5.20;100.00;99499.44;5002713;28;20467;-75
2022/02/08 08:50:16;;;;;;;2.67;1.90;;;4.60;99.90;;;5.28;100.00;99497.88;5004017;28;20505;-75
2022/02/08 08:52:50;;;;;;;4.80;2.10;;;4.60;99.90;;;5.33;100.00;99497.53;5003749;28;20540;-75
2022/02/08 08:55:21;;;;;;;2.47;1.80;;;4.70;99.90;;;5.30;100.00;99490.81;5003213;28;20465;-75
2022/02/08 08:57:53;;;;;;;4.20;2.00;;;4.70;99.90;;;5.33;100.00;99492.34;5003056;28;20932;-75
2022/02/08 09:00:29;;;;;;;6.30;2.07;;;4.80;99.90;;;5.27;100.00;99493.66;5002891;28;20456;-75
2022/02/08 09:03:02;;;;;;;3.53;1.80;;;4.70;99.90;;;5.30;100.00;99490.00;5004393;28;20467;-75
2022/02/08 09:05:33;;;;;;;3.03;2.20;;;4.70;99.90;;;5.31;100.00;99495.03;5001221;28;20475;-75
2022/02/08 09:08:04;;;;;;;1.77;1.67;;;4.80;99.90;;;5.32;100.00;99496.72;5001647;28;20488;-75
2022/02/08 09:10:44;;;;;;;7.40;2.03;;;4.70;99.90;;;5.38;100.00;99483.25;5002812;28;20466;-75
2022/02/08 09:13:25;;;;;;;3.23;2.20;;;4.70;99.90;;;5.43;100.00;99490.69;5003511;28;20459;-75
2022/02/08 09:16:03;;;;;;;8.13;2.20;;;4.80;99.90;;;5.49;100.00;99487.63;5003411;28;20456;-75
2022/02/08 09:30:03;;;;;;;3.00;1.40;;;5.00;99.90;;;5.62;100.00;99487.50;5001999;28;20964;-75
2022/02/08 09:32:43;;;;;;;1.30;1.20;;;5.00;99.90;;;5.62;100.00;99482.31;5001266;28;20558;-75
2022/02/08 09:35:16;;;;;;;1.43;1.30;;;5.10;99.90;;;5.66;100.00;99481.13;5002675;28;20463;-75
2022/02/08 09:37:48;;;;;;;4.10;1.70;;;5.20;99.90;;;5.67;100.00;99485.34;5002825;28;20982;-75
2022/02/08 09:40:21;;;;;;;4.07;1.90;;;5.10;99.90;;;5.70;100.00;99490.31;5003081;28;20484;-75
2022/02/08 09:42:59;;;;;;;4.30;1.40;;;5.10;99.90;;;5.75;100.00;99488.19;5001167;28;20458;-75
2022/02/08 09:45:34;;;;;;;3.33;1.33;;;5.10;99.90;;;5.81;100.00;99490.28;5004196;28;20495;-75
2022/02/08 09:48:11;;;;;;;5.30;1.80;;;5.20;99.90;;;5.81;100.00;99492.88;4979324;28;21299;-75
2022/02/08 09:50:42;;;;;;;1.43;1.33;;;5.20;99.90;;;5.85;100.00;99491.69;4978942;28;20458;-75
2022/02/08 09:53:18;;;;;;;2.10;1.40;;;5.30;99.90;;;5.82;100.00;99494.53;4979928;28;20944;-76
2022/02/08 09:55:52;;;;;;;3.50;1.30;;;5.30;99.90;;;5.87;100.00;99487.22;4980610;28;20460;-75
2022/02/08 09:58:24;;;;;;;2.43;1.90;;;5.30;99.90;;;5.90;100.00;99484.41;4981254;28;20457;-75
2022/02/08 10:01:11;;;;;;;3.47;1.57;;;5.40;99.90;;;5.94;100.00;99486.63;4982014;28;20451;-75
2022/02/08 10:03:52;;;;;;;4.80;1.50;;;5.50;99.90;;;5.98;100.00;99489.81;4982213;28;20568;-75
2022/02/08 10:06:24;;;;;;;1.90;1.33;;;5.50;99.90;;;6.06;100.00;99477.03;4982665;28;20442;-75
2022/02/08 10:09:30;;;;;;;3.23;1.50;;;5.50;99.90;;;6.08;100.00;99483.75;4982087;28;20491;-75
2022/02/08 10:12:02;;;;;;;3.03;1.73;;;5.50;99.90;;;6.15;100.00;99480.66;4982597;28;20452;-75
2022/02/08 10:14:55;;;;;;;1.90;1.37;;;5.60;99.90;;;6.18;100.00;99480.44;4982659;28;20471;-75
2022/02/08 10:23:09;;;;;;;2.27;1.70;;;5.80;99.90;;;6.20;100.00;99491.50;4982621;28;20463;-75
2022/02/08 10:25:49;;;;;;;2.60;1.73;;;5.70;99.90;;;6.22;100.00;99485.25;4981323;28;20472;-75
2022/02/08 10:28:30;;;;;;;2.50;2.30;;;5.70;99.90;;;6.25;100.00;99487.59;4982355;28;20547;-75
2022/02/08 10:31:21;;;;;;;2.53;1.50;;;5.70;99.90;;;6.30;100.00;99489.81;4983060;28;20950;-75
2022/02/08 10:40:00;;;;;;;3.17;2.13;;;5.70;99.90;;;6.33;100.00;99487.78;4983546;28;20453;-75
2022/02/08 10:42:30;;;;;;;3.50;1.83;;;5.80;99.90;;;6.28;100.00;99489.94;4982429;28;20448;-76
2022/02/08 10:45:05;;;;;;;4.63;2.27;;;5.70;99.90;;;6.31;100.00;99494.91;4981926;28;20456;-75
2022/02/08 10:47:45;;;;;;;2.20;1.40;;;5.70;99.90;;;6.32;100.00;99490.50;4996932;28;20511;-75
2022/02/08 10:50:17;;;;;;;2.17;1.60;;;5.80;99.90;;;6.32;100.00;99491.34;5001913;28;20570;-75
2022/02/08 10:52:48;;;;;;;5.50;2.10;;;5.80;99.90;;;6.23;100.00;99492.09;5000337;28;20448;-75
2022/02/08 10:55:35;;;;;;;9.93;2.60;;;5.60;99.90;;;6.26;100.00;99494.44;5001160;28;20454;-75
2022/02/08 10:58:14;;;;;;;4.10;2.17;;;5.70;99.90;;;6.23;100.00;99491.25;5003333;28;20442;-75
2022/02/08 11:00:51;;;;;;;3.83;1.60;;;5.60;99.90;;;6.30;100.00;99498.44;5001426;28;20443;-75
2022/02/08 11:03:33;;;;;;;3.30;2.13;;;5.80;99.90;;;6.33;100.00;99503.38;4999452;28;20528;-75
2022/02/08 11:06:16;;;;;;;3.97;2.27;;;5.80;99.90;;;6.35;100.00;99500.69;5001575;28;20542;-75
2022/02/08 11:09:15;;;;;;;4.20;1.83;;;5.90;99.90;;;6.38;100.00;99501.25;5000689;28;20526;-75
2022/02/08 11:12:09;;;;;;;7.93;2.50;;;5.80;99.90;;;6.31;100.00;99500.09;5001378;28;20506;-75
2022/02/08 11:15:09;;;;;;;7.13;2.67;;;5.70;99.90;;;6.27;100.00;99509.09;5000303;28;20460;-75
2022/02/08 11:20:31;;;;;;;2.30;2.03;;;5.80;99.90;;;6.36;100.00;99507.50;4997562;28;20477;-75
2022/02/08 11:23:25;;;;;;;2.40;2.20;;;5.70;99.90;;;6.39;100.00;99507.25;4999263;28;21056;-75
2022/02/08 11:26:03;;;;;;;2.37;1.93;;;5.80;99.90;;;6.40;100.00;99508.91;4998720;28;20535;-75
2022/02/08 11:28:44;;;;;;;4.10;2.10;;;5.80;99.90;;;6.46;100.00;99508.41;4999876;28;20519;-75
2022/02/08 11:31:22;;;;;;;2.93;1.87;;;5.90;99.90;;;6.54;100.00;99500.81;5001095;28;21122;-75
2022/02/08 11:38:58;;;;;;;2.40;1.57;;;6.00;99.90;;;6.50;100.00;99499.41;5002164;28;20605;-75
2022/02/08 11:43:31;;;;;;;3.60;1.70;;;5.90;99.90;;;6.48;100.00;99491.75;4946522;29;20473;-75
2022/02/08 11:46:23;;;;;;;1.60;1.50;;;5.90;99.90;;;6.49;100.00;99493.38;5000905;28;21356;-75
2022/02/08 11:52:23;;;;;;;1.73;1.60;;;5.80;99.90;;;6.49;100.00;99483.00;5004422;28;20532;-75
2022/02/08 11:58:11;;;;;;;2.60;1.70;;;6.00;99.90;;;6.65;100.00;99476.53;5002754;28;20454;-75
2022/02/08 12:00:47;;;;;;;1.93;1.70;;;6.10;99.90;;;6.64;100.00;99469.69;5001137;28;20826;-75
2022/02/08 12:06:45;;;;;;;2.40;2.20;;;6.20;99.90;;;6.68;100.00;99482.31;5002968;28;20435;-75
2022/02/08 12:09:28;;;;;;;3.90;2.13;;;6.10;99.90;;;6.69;100.00;99472.75;5003255;28;20505;-75
2022/02/08 12:12:34;;;;;;;2.87;2.30;;;6.20;99.90;;;6.65;100.00;99473.94;5004929;28;20447;-75
2022/02/08 12:32:38;;;;;;;4.60;1.63;;;6.20;99.90;;;6.86;100.00;99461.75;5003221;28;20444;-75
2022/02/08 12:35:53;;;;;;;2.90;1.77;;;6.40;99.90;;;6.89;100.00;99458.91;5004284;28;20541;-76
2022/02/08 12:50:35;;;;;;;2.73;1.83;;;6.50;99.90;;;7.01;100.00;99457.88;5002746;28;21066;-76
2022/02/08 12:56:15;;;;;;;2.23;1.80;;;6.40;99.90;;;7.01;100.00;99457.88;4995449;28;20562;-76
2022/02/08 12:59:21;;;;;;;4.10;2.10;;;6.40;99.90;;;7.04;100.00;99447.22;5003002;28;20447;-76
2022/02/08 13:04:53;;;;;;;2.20;2.00;;;6.50;99.90;;;7.12;100.00;99434.38;5003244;28;21037;-76
2022/02/08 14:01:53;;;;;;;1.93;1.40;;;6.80;99.90;;;7.41;100.00;99398.06;5003572;28;20451;-76
2022/02/08 14:07:22;;;;;;;1.30;1.20;;;6.80;99.90;;;7.36;100.00;99411.44;4982596;28;20455;-76
2022/02/08 14:10:20;;;;;;;2.43;1.60;;;6.80;99.90;;;7.40;100.00;99418.03;5002537;28;20500;-76
2022/02/08 14:13:32;;;;;;;1.57;1.47;;;6.80;99.90;;;7.46;100.00;99407.09;5002938;28;20455;-76
2022/02/08 14:16:13;;;;;;;3.20;1.30;;;7.00;99.90;;;7.51;100.00;99414.50;5001206;28;20502;-76
2022/02/08 14:19:07;;;;;;;1.53;1.43;;;7.00;99.90;;;7.49;100.00;99414.66;5001176;28;20452;-76
2022/02/08 14:21:51;;;;;;;2.93;1.33;;;7.00;99.90;;;7.53;100.00;99415.22;5001711;28;20448;-76